CheckWX is a tool to help pilots better visualize weather data.  It is not intended as a substitute for an official pre-flight weather briefing.

01:22:33 UTC

KMGE TAF
Dobbins Air Reserve Base Airport
Marietta, Georgia, USA
TAF KMGE 142100Z 1421/1603 29006KT 9999 SCT180 BKN250 QNH3006INS WND VRB06KT AFT 1501 BECMG 1517/1518 13005KT 9000 -RA BR SCT009 OVC018 QNH2997INS TX24/1421Z TN11/1511Z

Oct-14@
21:00 UTC

Oct-14 @ 21:00 UTC

Oct-15@
17:00 UTC

Oct-15 @ 17:00 UTC

TAF KMGE 142100Z 1421/1603 29006KT 9999 SCT180 BKN250 QNH3006INS WND VRB06KT AFT 1501
Wind
  • 290° at 6 KTS
Cloud Levels
  • Scattered at 18,000' AGL
  • Broken at 25,000' AGL

Oct-15@
17:00 UTC

Oct-15 @ 17:00 UTC

Oct-16@
03:00 UTC

Oct-16 @ 03:00 UTC

BECMG 1517/1518 13005KT 9000 -RA BR SCT009 OVC018 QNH2997INS TX24/1421Z TN11/1511Z

Becoming

Becoming Conditions expected by Tue, Oct 15, 2019 @ 18:00 UTC

Wind
  • 130° at 5 KTS
Conditions
Light Rain, Mist
Cloud Levels
  • Scattered at 900' AGL
  • Overcast at 1,800' AGL